sensor_id;sensor_type;location;lat;lon;timestamp;temperature;humidity
1476;DHT22;730;48.870;12.542;2023-02-03T00:00:37;2.90;13.60
1476;DHT22;730;48.870;12.542;2023-02-03T00:03:03;2.90;13.50
1476;DHT22;730;48.870;12.542;2023-02-03T00:05:29;2.90;13.50
1476;DHT22;730;48.870;12.542;2023-02-03T00:07:55;2.90;13.60
1476;DHT22;730;48.870;12.542;2023-02-03T00:10:22;2.90;13.80
1476;DHT22;730;48.870;12.542;2023-02-03T00:12:49;2.80;13.90
1476;DHT22;730;48.870;12.542;2023-02-03T00:15:16;2.90;13.90
1476;DHT22;730;48.870;12.542;2023-02-03T00:17:42;2.90;13.70
1476;DHT22;730;48.870;12.542;2023-02-03T00:20:09;2.90;13.60
1476;DHT22;730;48.870;12.542;2023-02-03T00:22:35;2.80;13.70
1476;DHT22;730;48.870;12.542;2023-02-03T00:25:02;2.80;13.90
1476;DHT22;730;48.870;12.542;2023-02-03T00:27:28;2.80;13.80
1476;DHT22;730;48.870;12.542;2023-02-03T00:29:54;2.90;13.80
1476;DHT22;730;48.870;12.542;2023-02-03T00:32:21;2.90;13.70
1476;DHT22;730;48.870;12.542;2023-02-03T00:34:47;2.90;13.80
1476;DHT22;730;48.870;12.542;2023-02-03T00:37:13;2.90;13.70
1476;DHT22;730;48.870;12.542;2023-02-03T00:39:39;3.00;14.20
1476;DHT22;730;48.870;12.542;2023-02-03T00:42:05;3.00;13.40
1476;DHT22;730;48.870;12.542;2023-02-03T00:44:31;3.00;13.40
1476;DHT22;730;48.870;12.542;2023-02-03T00:46:58;3.00;13.30
1476;DHT22;730;48.870;12.542;2023-02-03T00:49:24;3.00;13.20
1476;DHT22;730;48.870;12.542;2023-02-03T00:51:50;3.00;13.10
1476;DHT22;730;48.870;12.542;2023-02-03T00:54:16;3.10;12.90
1476;DHT22;730;48.870;12.542;2023-02-03T00:56:42;3.10;12.60
1476;DHT22;730;48.870;12.542;2023-02-03T00:59:09;3.20;12.60
1476;DHT22;730;48.870;12.542;2023-02-03T01:01:35;3.20;12.40
1476;DHT22;730;48.870;12.542;2023-02-03T01:04:03;3.20;12.20
1476;DHT22;730;48.870;12.542;2023-02-03T01:06:30;3.30;12.00
1476;DHT22;730;48.870;12.542;2023-02-03T01:08:56;3.30;11.80
1476;DHT22;730;48.870;12.542;2023-02-03T01:11:24;3.40;11.70
1476;DHT22;730;48.870;12.542;2023-02-03T01:13:53;3.40;11.50
1476;DHT22;730;48.870;12.542;2023-02-03T01:16:21;3.40;11.40
1476;DHT22;730;48.870;12.542;2023-02-03T01:18:48;3.40;11.20
1476;DHT22;730;48.870;12.542;2023-02-03T01:21:19;3.50;11.20
1476;DHT22;730;48.870;12.542;2023-02-03T01:23:46;3.50;11.00
1476;DHT22;730;48.870;12.542;2023-02-03T01:26:15;3.50;10.80
1476;DHT22;730;48.870;12.542;2023-02-03T01:28:41;3.50;10.80
1476;DHT22;730;48.870;12.542;2023-02-03T01:31:13;3.60;10.90
1476;DHT22;730;48.870;12.542;2023-02-03T01:33:40;3.60;11.20
1476;DHT22;730;48.870;12.542;2023-02-03T01:36:07;3.60;11.40
1476;DHT22;730;48.870;12.542;2023-02-03T01:38:34;3.60;11.60
1476;DHT22;730;48.870;12.542;2023-02-03T01:41:00;3.50;11.80
1476;DHT22;730;48.870;12.542;2023-02-03T01:43:37;3.60;12.30
1476;DHT22;730;48.870;12.542;2023-02-03T01:46:37;3.60;12.70
1476;DHT22;730;48.870;12.542;2023-02-03T01:49:14;3.60;13.20
1476;DHT22;730;48.870;12.542;2023-02-03T01:51:42;3.60;13.50
1476;DHT22;730;48.870;12.542;2023-02-03T01:54:12;3.60;13.90
1476;DHT22;730;48.870;12.542;2023-02-03T01:56:44;3.50;13.80
1476;DHT22;730;48.870;12.542;2023-02-03T01:59:12;3.60;14.00
1476;DHT22;730;48.870;12.542;2023-02-03T02:01:40;3.60;14.60
1476;DHT22;730;48.870;12.542;2023-02-03T02:04:07;3.60;14.10
1476;DHT22;730;48.870;12.542;2023-02-03T02:06:33;3.60;14.00
1476;DHT22;730;48.870;12.542;2023-02-03T02:09:00;3.60;13.90
1476;DHT22;730;48.870;12.542;2023-02-03T02:11:27;3.60;14.30
1476;DHT22;730;48.870;12.542;2023-02-03T02:13:56;3.60;14.30
1476;DHT22;730;48.870;12.542;2023-02-03T02:22:23;3.60;14.60
1476;DHT22;730;48.870;12.542;2023-02-03T02:25:15;3.60;14.80
1476;DHT22;730;48.870;12.542;2023-02-03T02:33:41;3.70;16.50
1476;DHT22;730;48.870;12.542;2023-02-03T02:36:27;3.70;17.30
1476;DHT22;730;48.870;12.542;2023-02-03T02:39:09;3.70;17.80
1476;DHT22;730;48.870;12.542;2023-02-03T02:42:14;3.80;17.90
1476;DHT22;730;48.870;12.542;2023-02-03T02:44:34;3.80;18.20
1476;DHT22;730;48.870;12.542;2023-02-03T02:47:16;3.80;18.50
1476;DHT22;730;48.870;12.542;2023-02-03T02:50:03;3.80;18.20
1476;DHT22;730;48.870;12.542;2023-02-03T02:52:33;3.90;18.30
1476;DHT22;730;48.870;12.542;2023-02-03T02:55:04;3.90;18.50
1476;DHT22;730;48.870;12.542;2023-02-03T02:57:37;3.90;18.60
1476;DHT22;730;48.870;12.542;2023-02-03T03:00:05;4.00;18.70
1476;DHT22;730;48.870;12.542;2023-02-03T03:02:33;4.00;18.90
1476;DHT22;730;48.870;12.542;2023-02-03T03:05:01;4.00;18.50
1476;DHT22;730;48.870;12.542;2023-02-03T03:07:35;4.00;18.60
1476;DHT22;730;48.870;12.542;2023-02-03T03:10:09;4.10;18.60
1476;DHT22;730;48.870;12.542;2023-02-03T03:12:41;4.10;18.30
1476;DHT22;730;48.870;12.542;2023-02-03T03:15:14;4.10;18.10
1476;DHT22;730;48.870;12.542;2023-02-03T03:17:47;4.10;17.90
1476;DHT22;730;48.870;12.542;2023-02-03T03:20:21;4.10;18.20
1476;DHT22;730;48.870;12.542;2023-02-03T03:22:58;4.20;18.10
1476;DHT22;730;48.870;12.542;2023-02-03T03:25:31;4.20;17.90
1476;DHT22;730;48.870;12.542;2023-02-03T03:28:03;4.20;17.90
1476;DHT22;730;48.870;12.542;2023-02-03T03:30:35;4.20;17.80
1476;DHT22;730;48.870;12.542;2023-02-03T03:33:02;4.20;17.70
1476;DHT22;730;48.870;12.542;2023-02-03T03:35:40;4.20;17.60
1476;DHT22;730;48.870;12.542;2023-02-03T03:38:16;4.20;17.60
1476;DHT22;730;48.870;12.542;2023-02-03T03:40:52;4.20;17.90
1476;DHT22;730;48.870;12.542;2023-02-03T03:43:25;4.20;17.90
1476;DHT22;730;48.870;12.542;2023-02-03T03:45:57;4.20;17.90
1476;DHT22;730;48.870;12.542;2023-02-03T03:51:05;4.30;18.00
1476;DHT22;730;48.870;12.542;2023-02-03T03:53:35;4.30;17.80
1476;DHT22;730;48.870;12.542;2023-02-03T03:56:06;4.30;17.90
1476;DHT22;730;48.870;12.542;2023-02-03T03:58:36;4.30;17.80
1476;DHT22;730;48.870;12.542;2023-02-03T04:01:05;4.30;17.60
1476;DHT22;730;48.870;12.542;2023-02-03T04:03:38;4.30;17.70
1476;DHT22;730;48.870;12.542;2023-02-03T04:06:05;4.30;17.70
1476;DHT22;730;48.870;12.542;2023-02-03T04:08:31;4.30;17.80
1476;DHT22;730;48.870;12.542;2023-02-03T04:10:57;4.40;17.50
1476;DHT22;730;48.870;12.542;2023-02-03T04:13:23;4.40;17.40
1476;DHT22;730;48.870;12.542;2023-02-03T04:15:49;4.40;17.60
1476;DHT22;730;48.870;12.542;2023-02-03T04:18:16;4.30;17.40
1476;DHT22;730;48.870;12.542;2023-02-03T04:20:42;4.40;17.20
1476;DHT22;730;48.870;12.542;2023-02-03T04:23:09;4.40;17.20
1476;DHT22;730;48.870;12.542;2023-02-03T04:25:35;4.40;17.30
1476;DHT22;730;48.870;12.542;2023-02-03T04:28:04;4.40;17.50
1476;DHT22;730;48.870;12.542;2023-02-03T04:30:31;4.40;17.30
1476;DHT22;730;48.870;12.542;2023-02-03T04:32:57;4.50;17.30
1476;DHT22;730;48.870;12.542;2023-02-03T04:35:23;4.50;17.30
1476;DHT22;730;48.870;12.542;2023-02-03T04:37:49;4.50;17.50
1476;DHT22;730;48.870;12.542;2023-02-03T04:40:15;4.50;17.30
1476;DHT22;730;48.870;12.542;2023-02-03T04:42:41;4.60;17.00
1476;DHT22;730;48.870;12.542;2023-02-03T04:45:09;4.50;16.70
1476;DHT22;730;48.870;12.542;2023-02-03T04:47:35;4.50;16.50
1476;DHT22;730;48.870;12.542;2023-02-03T04:50:02;4.50;16.60
1476;DHT22;730;48.870;12.542;2023-02-03T04:52:28;4.50;16.70
1476;DHT22;730;48.870;12.542;2023-02-03T04:54:54;4.50;16.80
1476;DHT22;730;48.870;12.542;2023-02-03T04:57:20;4.50;16.40
1476;DHT22;730;48.870;12.542;2023-02-03T04:59:46;4.40;16.30
1476;DHT22;730;48.870;12.542;2023-02-03T05:02:12;4.50;16.30
1476;DHT22;730;48.870;12.542;2023-02-03T05:04:38;4.40;16.70
1476;DHT22;730;48.870;12.542;2023-02-03T05:07:04;4.50;16.40
1476;DHT22;730;48.870;12.542;2023-02-03T05:09:30;4.50;15.90
1476;DHT22;730;48.870;12.542;2023-02-03T05:12:00;4.50;15.90
1476;DHT22;730;48.870;12.542;2023-02-03T05:14:26;4.50;15.70
1476;DHT22;730;48.870;12.542;2023-02-03T05:16:52;4.50;15.60
1476;DHT22;730;48.870;12.542;2023-02-03T05:19:18;4.50;15.50
1476;DHT22;730;48.870;12.542;2023-02-03T05:21:44;4.50;15.30
1476;DHT22;730;48.870;12.542;2023-02-03T05:24:10;4.50;15.60
1476;DHT22;730;48.870;12.542;2023-02-03T05:26:36;4.50;15.60
1476;DHT22;730;48.870;12.542;2023-02-03T05:29:02;4.50;15.30
1476;DHT22;730;48.870;12.542;2023-02-03T05:31:28;4.50;15.20
1476;DHT22;730;48.870;12.542;2023-02-03T05:33:57;4.50;15.10
1476;DHT22;730;48.870;12.542;2023-02-03T05:36:23;4.50;14.70
1476;DHT22;730;48.870;12.542;2023-02-03T05:38:49;4.50;14.60
1476;DHT22;730;48.870;12.542;2023-02-03T05:41:15;4.50;14.70
1476;DHT22;730;48.870;12.542;2023-02-03T05:44:00;4.60;14.00
1476;DHT22;730;48.870;12.542;2023-02-03T05:46:26;4.60;14.10
1476;DHT22;730;48.870;12.542;2023-02-03T05:48:52;4.60;15.00
1476;DHT22;730;48.870;12.542;2023-02-03T05:51:18;4.70;14.80
1476;DHT22;730;48.870;12.542;2023-02-03T05:53:44;4.80;14.00
1476;DHT22;730;48.870;12.542;2023-02-03T05:56:10;4.80;12.70
1476;DHT22;730;48.870;12.542;2023-02-03T05:58:36;4.90;11.30
1476;DHT22;730;48.870;12.542;2023-02-03T06:01:02;4.80;11.30
1476;DHT22;730;48.870;12.542;2023-02-03T06:03:30;4.80;11.60
1476;DHT22;730;48.870;12.542;2023-02-03T06:05:56;4.80;11.60
1476;DHT22;730;48.870;12.542;2023-02-03T06:08:24;4.70;11.90
1476;DHT22;730;48.870;12.542;2023-02-03T06:10:57;4.70;11.70
1476;DHT22;730;48.870;12.542;2023-02-03T06:13:24;4.70;12.00
1476;DHT22;730;48.870;12.542;2023-02-03T06:15:50;4.70;11.50
1476;DHT22;730;48.870;12.542;2023-02-03T06:18:16;4.60;11.70
1476;DHT22;730;48.870;12.542;2023-02-03T06:20:42;4.70;12.20
1476;DHT22;730;48.870;12.542;2023-02-03T06:23:08;4.60;12.40
1476;DHT22;730;48.870;12.542;2023-02-03T06:25:36;4.70;12.30
1476;DHT22;730;48.870;12.542;2023-02-03T06:28:02;4.70;12.00
1476;DHT22;730;48.870;12.542;2023-02-03T06:30:28;4.70;12.00
1476;DHT22;730;48.870;12.542;2023-02-03T06:32:54;4.70;11.90
1476;DHT22;730;48.870;12.542;2023-02-03T06:35:21;4.70;11.40
1476;DHT22;730;48.870;12.542;2023-02-03T06:37:47;4.70;11.50
1476;DHT22;730;48.870;12.542;2023-02-03T06:40:13;4.70;11.40
1476;DHT22;730;48.870;12.542;2023-02-03T06:42:39;4.60;11.20
1476;DHT22;730;48.870;12.542;2023-02-03T06:45:06;4.60;11.40
1476;DHT22;730;48.870;12.542;2023-02-03T06:47:33;4.60;11.40
1476;DHT22;730;48.870;12.542;2023-02-03T06:50:04;4.60;11.40
1476;DHT22;730;48.870;12.542;2023-02-03T06:52:30;4.60;11.60
1476;DHT22;730;48.870;12.542;2023-02-03T06:54:56;4.60;12.50
1476;DHT22;730;48.870;12.542;2023-02-03T06:57:22;4.60;12.00
1476;DHT22;730;48.870;12.542;2023-02-03T06:59:49;4.50;12.20
1476;DHT22;730;48.870;12.542;2023-02-03T07:02:15;4.60;12.30
1476;DHT22;730;48.870;12.542;2023-02-03T07:04:41;4.50;12.50
1476;DHT22;730;48.870;12.542;2023-02-03T07:07:13;4.50;12.60
1476;DHT22;730;48.870;12.542;2023-02-03T07:09:39;4.50;12.80
1476;DHT22;730;48.870;12.542;2023-02-03T07:12:06;4.60;12.50
1476;DHT22;730;48.870;12.542;2023-02-03T07:14:35;4.50;12.80
1476;DHT22;730;48.870;12.542;2023-02-03T07:17:01;4.50;12.80
1476;DHT22;730;48.870;12.542;2023-02-03T07:19:28;4.50;12.80
1476;DHT22;730;48.870;12.542;2023-02-03T07:21:54;4.60;12.50
1476;DHT22;730;48.870;12.542;2023-02-03T07:24:20;4.60;11.90
1476;DHT22;730;48.870;12.542;2023-02-03T07:26:46;4.60;12.50
1476;DHT22;730;48.870;12.542;2023-02-03T07:29:12;4.70;12.40
1476;DHT22;730;48.870;12.542;2023-02-03T07:31:38;4.70;12.30
1476;DHT22;730;48.870;12.542;2023-02-03T07:34:04;4.70;11.80
1476;DHT22;730;48.870;12.542;2023-02-03T07:36:31;4.70;12.00
1476;DHT22;730;48.870;12.542;2023-02-03T07:38:58;4.70;11.80
1476;DHT22;730;48.870;12.542;2023-02-03T07:41:24;4.70;11.90
1476;DHT22;730;48.870;12.542;2023-02-03T07:43:50;4.70;11.70
1476;DHT22;730;48.870;12.542;2023-02-03T07:46:16;4.70;11.90
1476;DHT22;730;48.870;12.542;2023-02-03T07:48:42;4.70;11.50
1476;DHT22;730;48.870;12.542;2023-02-03T07:51:08;4.80;11.90
1476;DHT22;730;48.870;12.542;2023-02-03T07:53:34;4.80;11.60
1476;DHT22;730;48.870;12.542;2023-02-03T07:56:04;4.80;11.60
1476;DHT22;730;48.870;12.542;2023-02-03T07:58:37;4.80;11.00
1476;DHT22;730;48.870;12.542;2023-02-03T08:01:14;4.90;11.00
1476;DHT22;730;48.870;12.542;2023-02-03T08:03:40;4.80;10.70
1476;DHT22;730;48.870;12.542;2023-02-03T08:06:07;4.90;10.50
1476;DHT22;730;48.870;12.542;2023-02-03T08:08:34;4.90;10.20
1476;DHT22;730;48.870;12.542;2023-02-03T08:11:00;4.90;9.80
1476;DHT22;730;48.870;12.542;2023-02-03T08:13:27;4.90;9.70
1476;DHT22;730;48.870;12.542;2023-02-03T08:15:53;5.00;9.00
1476;DHT22;730;48.870;12.542;2023-02-03T08:18:19;5.00;9.10
1476;DHT22;730;48.870;12.542;2023-02-03T08:20:48;5.00;9.10
1476;DHT22;730;48.870;12.542;2023-02-03T08:23:14;5.00;8.50
1476;DHT22;730;48.870;12.542;2023-02-03T08:25:40;5.00;8.40
1476;DHT22;730;48.870;12.542;2023-02-03T08:28:06;5.00;8.30
1476;DHT22;730;48.870;12.542;2023-02-03T08:30:35;5.00;8.30
1476;DHT22;730;48.870;12.542;2023-02-03T08:33:01;5.00;8.30
1476;DHT22;730;48.870;12.542;2023-02-03T08:35:28;5.10;8.30
1476;DHT22;730;48.870;12.542;2023-02-03T08:37:54;5.10;8.20
1476;DHT22;730;48.870;12.542;2023-02-03T08:40:20;5.00;8.10
1476;DHT22;730;48.870;12.542;2023-02-03T08:42:46;5.00;8.20
1476;DHT22;730;48.870;12.542;2023-02-03T08:45:12;5.00;8.00
1476;DHT22;730;48.870;12.542;2023-02-03T08:47:38;5.10;8.10
1476;DHT22;730;48.870;12.542;2023-02-03T08:50:05;5.20;7.40
1476;DHT22;730;48.870;12.542;2023-02-03T08:52:32;5.20;7.20
1476;DHT22;730;48.870;12.542;2023-02-03T08:54:58;5.10;7.20
1476;DHT22;730;48.870;12.542;2023-02-03T08:57:24;5.20;7.10
1476;DHT22;730;48.870;12.542;2023-02-03T08:59:50;5.20;6.90
1476;DHT22;730;48.870;12.542;2023-02-03T09:02:18;5.20;6.60
1476;DHT22;730;48.870;12.542;2023-02-03T09:04:46;5.30;6.40
1476;DHT22;730;48.870;12.542;2023-02-03T09:07:14;5.30;6.70
1476;DHT22;730;48.870;12.542;2023-02-03T09:09:41;5.20;6.30
1476;DHT22;730;48.870;12.542;2023-02-03T09:12:08;5.20;6.20
1476;DHT22;730;48.870;12.542;2023-02-03T09:14:36;5.20;6.40
1476;DHT22;730;48.870;12.542;2023-02-03T09:17:03;5.20;6.40
1476;DHT22;730;48.870;12.542;2023-02-03T09:19:30;5.20;6.30
1476;DHT22;730;48.870;12.542;2023-02-03T09:21:56;5.20;6.10
1476;DHT22;730;48.870;12.542;2023-02-03T09:24:23;5.30;6.10
1476;DHT22;730;48.870;12.542;2023-02-03T09:26:49;5.30;6.20
1476;DHT22;730;48.870;12.542;2023-02-03T09:29:16;5.30;5.70
1476;DHT22;730;48.870;12.542;2023-02-03T09:31:42;5.30;5.70
1476;DHT22;730;48.870;12.542;2023-02-03T09:34:12;5.40;5.70
1476;DHT22;730;48.870;12.542;2023-02-03T09:36:38;5.40;5.60
1476;DHT22;730;48.870;12.542;2023-02-03T09:39:04;5.40;5.50
1476;DHT22;730;48.870;12.542;2023-02-03T09:42:01;5.40;5.30
1476;DHT22;730;48.870;12.542;2023-02-03T09:47:11;5.40;5.50
1476;DHT22;730;48.870;12.542;2023-02-03T09:52:22;5.50;5.30
1476;DHT22;730;48.870;12.542;2023-02-03T09:57:36;5.50;5.20
1476;DHT22;730;48.870;12.542;2023-02-03T10:00:16;5.50;5.40
1476;DHT22;730;48.870;12.542;2023-02-03T10:02:56;5.40;5.30
1476;DHT22;730;48.870;12.542;2023-02-03T10:13:52;5.40;6.60
1476;DHT22;730;48.870;12.542;2023-02-03T10:19:19;5.40;6.50
1476;DHT22;730;48.870;12.542;2023-02-03T10:21:51;5.40;6.70
1476;DHT22;730;48.870;12.542;2023-02-03T10:24:47;5.40;6.90
1476;DHT22;730;48.870;12.542;2023-02-03T10:27:18;5.40;7.10
1476;DHT22;730;48.870;12.542;2023-02-03T10:32:34;5.30;7.80
1476;DHT22;730;48.870;12.542;2023-02-03T10:35:04;5.30;7.80
1476;DHT22;730;48.870;12.542;2023-02-03T10:37:46;5.20;7.90
1476;DHT22;730;48.870;12.542;2023-02-03T10:40:14;5.30;7.80
1476;DHT22;730;48.870;12.542;2023-02-03T10:42:42;5.30;7.60
1476;DHT22;730;48.870;12.542;2023-02-03T10:45:35;5.30;7.60
1476;DHT22;730;48.870;12.542;2023-02-03T10:48:02;5.30;7.30
1476;DHT22;730;48.870;12.542;2023-02-03T10:50:29;5.30;7.20
1476;DHT22;730;48.870;12.542;2023-02-03T10:55:44;5.30;7.00
1476;DHT22;730;48.870;12.542;2023-02-03T10:58:18;5.40;7.40
1476;DHT22;730;48.870;12.542;2023-02-03T11:00:54;5.40;6.60
1476;DHT22;730;48.870;12.542;2023-02-03T11:03:25;5.40;6.60
1476;DHT22;730;48.870;12.542;2023-02-03T11:08:35;5.40;6.40
1476;DHT22;730;48.870;12.542;2023-02-03T11:11:05;5.40;6.50
1476;DHT22;730;48.870;12.542;2023-02-03T11:13:32;5.40;6.40
1476;DHT22;730;48.870;12.542;2023-02-03T11:16:14;5.50;6.50
1476;DHT22;730;48.870;12.542;2023-02-03T11:21:13;5.70;5.40
1476;DHT22;730;48.870;12.542;2023-02-03T11:23:46;5.70;5.10
1476;DHT22;730;48.870;12.542;2023-02-03T11:26:17;5.70;5.10
1476;DHT22;730;48.870;12.542;2023-02-03T11:28:46;5.80;4.90
1476;DHT22;730;48.870;12.542;2023-02-03T11:31:42;5.80;4.80
1476;DHT22;730;48.870;12.542;2023-02-03T11:34:16;5.80;4.70
1476;DHT22;730;48.870;12.542;2023-02-03T11:36:44;5.80;4.50
1476;DHT22;730;48.870;12.542;2023-02-03T11:41:41;5.80;4.10
1476;DHT22;730;48.870;12.542;2023-02-03T11:44:19;5.90;4.10
1476;DHT22;730;48.870;12.542;2023-02-03T11:46:48;5.80;4.70
1476;DHT22;730;48.870;12.542;2023-02-03T11:55:20;5.90;4.30
1476;DHT22;730;48.870;12.542;2023-02-03T12:04:08;5.90;4.50
1476;DHT22;730;48.870;12.542;2023-02-03T12:12:31;6.00;4.60
1476;DHT22;730;48.870;12.542;2023-02-03T12:29:29;6.00;3.60
1476;DHT22;730;48.870;12.542;2023-02-03T12:40:05;6.10;3.30
1476;DHT22;730;48.870;12.542;2023-02-03T12:42:49;6.10;3.20
1476;DHT22;730;48.870;12.542;2023-02-03T12:45:28;6.10;3.40
1476;DHT22;730;48.870;12.542;2023-02-03T12:48:05;6.20;3.70
1476;DHT22;730;48.870;12.542;2023-02-03T12:50:38;6.20;3.90
1476;DHT22;730;48.870;12.542;2023-02-03T12:53:28;6.20;4.30
1476;DHT22;730;48.870;12.542;2023-02-03T12:58:55;6.20;4.60
1476;DHT22;730;48.870;12.542;2023-02-03T13:01:36;6.10;5.00
1476;DHT22;730;48.870;12.542;2023-02-03T13:04:24;6.10;4.90
1476;DHT22;730;48.870;12.542;2023-02-03T13:12:27;6.10;4.50
1476;DHT22;730;48.870;12.542;2023-02-03T13:20:26;6.00;4.60
1476;DHT22;730;48.870;12.542;2023-02-03T13:22:53;6.10;4.60
1476;DHT22;730;48.870;12.542;2023-02-03T13:25:29;6.00;4.50
1476;DHT22;730;48.870;12.542;2023-02-03T13:36:58;6.00;4.40
1476;DHT22;730;48.870;12.542;2023-02-03T13:41:57;6.10;3.60
1476;DHT22;730;48.870;12.542;2023-02-03T13:44:33;6.10;3.40
1476;DHT22;730;48.870;12.542;2023-02-03T13:47:00;6.20;3.60
1476;DHT22;730;48.870;12.542;2023-02-03T13:49:28;6.10;3.60
1476;DHT22;730;48.870;12.542;2023-02-03T13:51:55;6.10;3.80
1476;DHT22;730;48.870;12.542;2023-02-03T13:54:33;6.20;3.60
1476;DHT22;730;48.870;12.542;2023-02-03T13:57:02;6.20;3.50
1476;DHT22;730;48.870;12.542;2023-02-03T13:59:42;6.20;3.30
1476;DHT22;730;48.870;12.542;2023-02-03T14:07:39;6.20;2.80
1476;DHT22;730;48.870;12.542;2023-02-03T14:10:20;6.20;2.70
1476;DHT22;730;48.870;12.542;2023-02-03T14:18:01;6.20;3.50
1476;DHT22;730;48.870;12.542;2023-02-03T14:25:32;6.20;3.70
1476;DHT22;730;48.870;12.542;2023-02-03T14:28:09;6.30;3.60
1476;DHT22;730;48.870;12.542;2023-02-03T14:42:06;6.40;5.00
1476;DHT22;730;48.870;12.542;2023-02-03T14:52:53;6.40;5.80
1476;DHT22;730;48.870;12.542;2023-02-03T14:57:52;6.40;8.00
1476;DHT22;730;48.870;12.542;2023-02-03T15:07:57;6.20;10.90
1476;DHT22;730;48.870;12.542;2023-02-03T15:13:04;6.20;12.10
1476;DHT22;730;48.870;12.542;2023-02-03T15:15:35;6.10;12.70
1476;DHT22;730;48.870;12.542;2023-02-03T15:18:30;6.10;13.50
1476;DHT22;730;48.870;12.542;2023-02-03T15:20:56;6.10;14.50
1476;DHT22;730;48.870;12.542;2023-02-03T15:23:28;6.10;14.80
1476;DHT22;730;48.870;12.542;2023-02-03T15:25:59;6.10;14.90
1476;DHT22;730;48.870;12.542;2023-02-03T15:28:29;6.10;15.30
1476;DHT22;730;48.870;12.542;2023-02-03T15:31:19;6.00;15.20
1476;DHT22;730;48.870;12.542;2023-02-03T15:33:47;6.10;15.50
1476;DHT22;730;48.870;12.542;2023-02-03T15:36:22;6.00;15.60
1476;DHT22;730;48.870;12.542;2023-02-03T15:39:01;6.00;15.70
1476;DHT22;730;48.870;12.542;2023-02-03T15:41:31;6.00;15.90
1476;DHT22;730;48.870;12.542;2023-02-03T15:44:02;6.00;15.70
1476;DHT22;730;48.870;12.542;2023-02-03T15:49:13;6.10;15.40
1476;DHT22;730;48.870;12.542;2023-02-03T15:51:43;6.10;15.40
1476;DHT22;730;48.870;12.542;2023-02-03T15:59:32;6.10;15.20
1476;DHT22;730;48.870;12.542;2023-02-03T16:02:01;6.20;14.80
1476;DHT22;730;48.870;12.542;2023-02-03T16:04:31;6.10;14.50
1476;DHT22;730;48.870;12.542;2023-02-03T16:06:58;6.20;14.60
1476;DHT22;730;48.870;12.542;2023-02-03T16:09:38;6.20;14.50
1476;DHT22;730;48.870;12.542;2023-02-03T16:14:39;6.10;14.50
1476;DHT22;730;48.870;12.542;2023-02-03T16:17:21;6.20;14.20
1476;DHT22;730;48.870;12.542;2023-02-03T16:19:48;6.20;14.10
1476;DHT22;730;48.870;12.542;2023-02-03T16:22:30;6.20;13.70
1476;DHT22;730;48.870;12.542;2023-02-03T16:25:17;6.20;13.20
1476;DHT22;730;48.870;12.542;2023-02-03T16:27:54;6.20;13.20
1476;DHT22;730;48.870;12.542;2023-02-03T16:30:52;6.30;12.90
1476;DHT22;730;48.870;12.542;2023-02-03T16:33:37;6.30;12.50
1476;DHT22;730;48.870;12.542;2023-02-03T16:36:22;6.30;12.20
1476;DHT22;730;48.870;12.542;2023-02-03T16:39:11;6.30;11.90
1476;DHT22;730;48.870;12.542;2023-02-03T16:41:59;6.30;11.60
1476;DHT22;730;48.870;12.542;2023-02-03T16:44:44;6.40;11.40
1476;DHT22;730;48.870;12.542;2023-02-03T16:47:31;6.40;11.30
1476;DHT22;730;48.870;12.542;2023-02-03T16:50:20;6.50;11.50
1476;DHT22;730;48.870;12.542;2023-02-03T16:53:13;6.50;11.10
1476;DHT22;730;48.870;12.542;2023-02-03T16:55:41;6.50;10.90
1476;DHT22;730;48.870;12.542;2023-02-03T16:58:07;6.60;10.80
1476;DHT22;730;48.870;12.542;2023-02-03T17:00:36;6.60;10.60
1476;DHT22;730;48.870;12.542;2023-02-03T17:03:07;6.60;10.50
1476;DHT22;730;48.870;12.542;2023-02-03T17:05:37;6.60;10.60
1476;DHT22;730;48.870;12.542;2023-02-03T17:08:04;6.60;10.40
1476;DHT22;730;48.870;12.542;2023-02-03T17:10:33;6.70;10.80
1476;DHT22;730;48.870;12.542;2023-02-03T17:13:00;6.70;10.80
1476;DHT22;730;48.870;12.542;2023-02-03T17:15:26;6.70;10.80
1476;DHT22;730;48.870;12.542;2023-02-03T17:17:52;6.70;10.90
1476;DHT22;730;48.870;12.542;2023-02-03T17:20:19;6.70;10.80
1476;DHT22;730;48.870;12.542;2023-02-03T17:22:46;6.70;10.70
1476;DHT22;730;48.870;12.542;2023-02-03T17:25:12;6.70;10.90
1476;DHT22;730;48.870;12.542;2023-02-03T17:27:38;6.70;11.10
1476;DHT22;730;48.870;12.542;2023-02-03T17:30:05;6.70;11.30
1476;DHT22;730;48.870;12.542;2023-02-03T17:32:31;6.70;11.30
1476;DHT22;730;48.870;12.542;2023-02-03T17:34:57;6.70;11.30
1476;DHT22;730;48.870;12.542;2023-02-03T17:37:23;6.70;11.30
1476;DHT22;730;48.870;12.542;2023-02-03T17:39:49;6.70;11.50
1476;DHT22;730;48.870;12.542;2023-02-03T17:42:15;6.70;11.80
1476;DHT22;730;48.870;12.542;2023-02-03T17:44:41;6.80;12.10
1476;DHT22;730;48.870;12.542;2023-02-03T17:47:07;6.80;12.30
1476;DHT22;730;48.870;12.542;2023-02-03T17:49:33;6.80;12.30
1476;DHT22;730;48.870;12.542;2023-02-03T17:51:59;6.70;12.60
1476;DHT22;730;48.870;12.542;2023-02-03T17:54:25;6.70;12.50
1476;DHT22;730;48.870;12.542;2023-02-03T17:56:51;6.70;12.90
1476;DHT22;730;48.870;12.542;2023-02-03T17:59:17;6.70;13.10
1476;DHT22;730;48.870;12.542;2023-02-03T18:01:44;6.70;13.40
1476;DHT22;730;48.870;12.542;2023-02-03T18:04:11;6.70;13.50
1476;DHT22;730;48.870;12.542;2023-02-03T18:06:37;6.70;13.40
1476;DHT22;730;48.870;12.542;2023-02-03T18:09:05;6.70;13.70
1476;DHT22;730;48.870;12.542;2023-02-03T18:11:33;6.70;13.90
1476;DHT22;730;48.870;12.542;2023-02-03T18:14:00;6.70;14.10
1476;DHT22;730;48.870;12.542;2023-02-03T18:16:28;6.70;14.10
1476;DHT22;730;48.870;12.542;2023-02-03T18:18:58;6.70;14.20
1476;DHT22;730;48.870;12.542;2023-02-03T18:21:25;6.70;14.00
1476;DHT22;730;48.870;12.542;2023-02-03T18:23:52;6.80;14.10
1476;DHT22;730;48.870;12.542;2023-02-03T18:26:22;6.80;14.00
1476;DHT22;730;48.870;12.542;2023-02-03T18:28:50;6.80;14.20
1476;DHT22;730;48.870;12.542;2023-02-03T18:31:20;6.80;14.20
1476;DHT22;730;48.870;12.542;2023-02-03T18:33:47;6.80;14.40
1476;DHT22;730;48.870;12.542;2023-02-03T18:36:15;6.70;14.90
1476;DHT22;730;48.870;12.542;2023-02-03T18:38:43;6.80;14.90
1476;DHT22;730;48.870;12.542;2023-02-03T18:41:16;6.80;15.00
1476;DHT22;730;48.870;12.542;2023-02-03T18:43:43;6.80;15.20
1476;DHT22;730;48.870;12.542;2023-02-03T18:46:13;6.80;15.10
1476;DHT22;730;48.870;12.542;2023-02-03T18:48:40;6.80;15.60
1476;DHT22;730;48.870;12.542;2023-02-03T18:51:08;6.80;15.50
1476;DHT22;730;48.870;12.542;2023-02-03T18:53:35;6.80;15.70
1476;DHT22;730;48.870;12.542;2023-02-03T18:56:07;6.90;15.60
1476;DHT22;730;48.870;12.542;2023-02-03T18:58:36;6.90;15.60
1476;DHT22;730;48.870;12.542;2023-02-03T19:01:02;6.90;15.80
1476;DHT22;730;48.870;12.542;2023-02-03T19:03:28;6.90;16.10
1476;DHT22;730;48.870;12.542;2023-02-03T19:05:54;6.90;16.10
1476;DHT22;730;48.870;12.542;2023-02-03T19:08:20;6.90;15.70
1476;DHT22;730;48.870;12.542;2023-02-03T19:10:50;6.90;15.80
1476;DHT22;730;48.870;12.542;2023-02-03T19:13:17;6.90;15.40
1476;DHT22;730;48.870;12.542;2023-02-03T19:15:46;7.00;14.90
1476;DHT22;730;48.870;12.542;2023-02-03T19:18:14;7.00;15.40
1476;DHT22;730;48.870;12.542;2023-02-03T19:20:43;7.00;15.00
1476;DHT22;730;48.870;12.542;2023-02-03T19:23:11;7.00;14.90
1476;DHT22;730;48.870;12.542;2023-02-03T19:25:38;7.10;14.80
1476;DHT22;730;48.870;12.542;2023-02-03T19:28:04;7.10;14.20
1476;DHT22;730;48.870;12.542;2023-02-03T19:30:31;7.10;14.10